Time;durP1;ratioP1;P1;durP2;ratioP2;P2;SDS_P1;SDS_P2;PMS_P1;PMS_P2;Temp;Humidity;BMP_temperature;BMP_pressure;BME280_temperature;BME280_humidity;BME280_pressure;Samples;Min_cycle;Max_cycle;Signal;HPM_P1;HPM_P2
2023/06/13 00:00:59;;;;;;;7.63;5.80;;;;;;;18.78;41.91;100363.72;10191339;29;20051;-73
2023/06/13 00:06:02;;;;;;;7.97;5.18;;;;;;;18.61;42.28;100360.19;10192892;29;20051;-72
2023/06/13 00:11:07;;;;;;;7.68;5.15;;;;;;;18.70;41.78;100361.00;10194757;29;20040;-73
2023/06/13 00:16:10;;;;;;;7.82;5.55;;;;;;;18.64;41.86;100354.41;10193088;29;20059;-73
2023/06/13 00:21:12;;;;;;;6.07;5.28;;;;;;;18.56;41.67;100355.28;10188840;29;20092;-71
2023/06/13 00:26:16;;;;;;;6.47;5.85;;;;;;;18.58;41.99;100353.25;10195354;29;20048;-73
2023/06/13 00:31:28;;;;;;;5.85;5.22;;;;;;;18.54;42.29;100351.03;10195836;29;20055;-73
2023/06/13 00:36:33;;;;;;;6.25;5.50;;;;;;;18.49;41.86;100345.31;10194551;29;20094;-73
2023/06/13 00:41:38;;;;;;;9.20;5.43;;;;;;;18.45;42.09;100341.25;10193770;29;20043;-76
2023/06/13 00:46:42;;;;;;;5.72;5.13;;;;;;;18.42;42.48;100355.19;10195288;29;20066;-73
2023/06/13 00:51:47;;;;;;;8.23;4.97;;;;;;;18.33;42.43;100347.06;10192779;29;20111;-73
2023/06/13 00:56:52;;;;;;;6.00;5.40;;;;;;;18.14;42.69;100355.63;10192914;29;20048;-73
2023/06/13 01:01:57;;;;;;;6.30;4.90;;;;;;;17.98;43.56;100367.38;10196069;29;20050;-74
2023/06/13 01:07:00;;;;;;;7.65;5.28;;;;;;;17.65;44.45;100363.84;10212215;29;20056;-73
2023/06/13 01:12:13;;;;;;;9.02;5.75;;;;;;;17.46;45.08;100367.75;10187848;29;20067;-73
2023/06/13 01:17:24;;;;;;;6.75;6.10;;;;;;;17.57;44.36;100356.53;10184564;29;20096;-74
2023/06/13 01:22:38;;;;;;;9.55;6.15;;;;;;;17.20;44.57;100351.66;10187509;29;20052;-74
2023/06/13 01:27:45;;;;;;;6.80;5.45;;;;;;;17.21;45.71;100367.75;10183929;29;20586;-74
2023/06/13 01:32:50;;;;;;;7.55;5.85;;;;;;;17.08;46.21;100363.78;10178459;29;20055;-73
2023/06/13 01:37:53;;;;;;;8.30;5.85;;;;;;;17.10;45.60;100351.75;10183595;29;20056;-74
2023/06/13 01:42:57;;;;;;;9.43;6.47;;;;;;;17.27;45.80;100349.09;10183721;29;20415;-74
2023/06/13 01:48:08;;;;;;;8.63;6.93;;;;;;;17.29;45.75;100347.91;10176990;29;20050;-74
2023/06/13 01:53:19;;;;;;;8.68;6.55;;;;;;;17.26;45.52;100348.25;10174990;29;20397;-74
2023/06/13 01:58:32;;;;;;;10.25;7.18;;;;;;;17.20;45.54;100352.50;10177699;29;20103;-74
2023/06/13 02:03:37;;;;;;;8.05;6.63;;;;;;;17.20;45.54;100348.94;10185254;29;20075;-74
2023/06/13 02:08:40;;;;;;;9.52;6.90;;;;;;;17.14;45.65;100341.44;10178528;29;20420;-73
2023/06/13 02:13:49;;;;;;;11.45;6.50;;;;;;;16.92;45.88;100348.31;10182194;29;20040;-74
2023/06/13 02:18:53;;;;;;;7.65;6.13;;;;;;;16.67;46.62;100344.72;10190326;29;20140;-73
2023/06/13 02:23:56;;;;;;;8.80;6.68;;;;;;;16.35;46.46;100349.88;10185888;29;20041;-73
2023/06/13 02:29:00;;;;;;;10.90;6.80;;;;;;;16.09;47.39;100349.84;10183722;29;20048;-73
2023/06/13 02:34:03;;;;;;;7.70;6.90;;;;;;;15.88;48.31;100354.84;10188638;29;20103;-73
2023/06/13 02:39:07;;;;;;;9.27;7.00;;;;;;;15.90;48.83;100347.38;10195674;29;20063;-73
2023/06/13 02:44:11;;;;;;;9.43;6.70;;;;;;;15.91;48.61;100339.09;10198120;29;20062;-73
2023/06/13 02:49:14;;;;;;;12.23;6.40;;;;;;;16.01;48.18;100333.56;10192510;29;20055;-74
2023/06/13 02:54:17;;;;;;;9.10;6.60;;;;;;;16.00;48.81;100344.56;10208832;29;20495;-74
2023/06/13 02:59:21;;;;;;;11.23;6.70;;;;;;;15.89;48.62;100341.13;10197144;29;20404;-73
2023/06/13 03:04:28;;;;;;;7.00;6.30;;;;;;;15.86;48.36;100346.84;10192404;29;20467;-73
2023/06/13 03:09:31;;;;;;;8.80;6.47;;;;;;;15.76;49.00;100347.97;10193361;29;20555;-73
2023/06/13 03:14:36;;;;;;;8.50;6.78;;;;;;;15.78;49.11;100341.41;10193173;29;20111;-73
2023/06/13 03:19:39;;;;;;;7.72;6.38;;;;;;;15.51;49.58;100347.78;10192511;29;20044;-73
2023/06/13 03:24:43;;;;;;;9.13;6.68;;;;;;;15.59;49.35;100341.59;10191528;29;20084;-73
2023/06/13 03:29:47;;;;;;;9.35;6.78;;;;;;;15.69;49.71;100331.53;10192194;29;20054;-73
2023/06/13 03:34:52;;;;;;;7.18;6.25;;;;;;;15.80;49.45;100342.09;10186982;29;20058;-74
2023/06/13 03:39:56;;;;;;;13.07;7.50;;;;;;;15.87;49.46;100343.13;10190817;29;20051;-73
2023/06/13 03:45:00;;;;;;;8.00;6.65;;;;;;;15.86;49.70;100340.59;10196079;29;20055;-74
2023/06/13 03:50:03;;;;;;;11.35;6.10;;;;;;;15.84;50.13;100342.59;10191183;29;20566;-74
2023/06/13 03:55:06;;;;;;;11.13;6.30;;;;;;;15.86;50.55;100351.44;10193811;29;20056;-73
2023/06/13 04:00:13;;;;;;;8.25;6.50;;;;;;;15.77;50.39;100342.41;10180331;29;20147;-74
2023/06/13 04:05:17;;;;;;;10.05;5.90;;;;;;;15.61;51.00;100345.84;10180313;29;20051;-73
2023/06/13 04:10:20;;;;;;;8.50;6.55;;;;;;;15.38;51.52;100348.19;10178824;29;20110;-73
2023/06/13 04:15:25;;;;;;;8.85;6.50;;;;;;;15.37;51.28;100348.38;10180865;29;20047;-73
2023/06/13 04:20:28;;;;;;;9.00;7.18;;;;;;;15.35;51.71;100356.63;10193156;29;20051;-73
2023/06/13 04:25:32;;;;;;;12.45;6.97;;;;;;;15.50;51.11;100356.09;10190406;29;20048;-73
2023/06/13 04:30:38;;;;;;;7.32;6.53;;;;;;;15.55;51.16;100349.19;10183489;29;20048;-73
2023/06/13 04:35:44;;;;;;;8.38;7.00;;;;;;;15.31;52.31;100360.63;10186035;29;20056;-73
2023/06/13 04:40:47;;;;;;;7.15;6.13;;;;;;;15.72;52.06;100355.56;10188237;29;20076;-73
2023/06/13 04:45:51;;;;;;;9.30;5.80;;;;;;;15.59;52.07;100355.13;10188572;29;20052;-73
2023/06/13 04:50:54;;;;;;;8.68;7.03;;;;;;;15.45;51.70;100357.41;10191998;29;20117;-73
2023/06/13 04:55:57;;;;;;;8.77;6.38;;;;;;;15.54;52.18;100354.75;10189206;29;20046;-73
2023/06/13 05:01:02;;;;;;;9.05;7.13;;;;;;;15.79;52.49;100358.47;10191876;29;20038;-73
2023/06/13 05:06:05;;;;;;;10.43;7.40;;;;;;;16.10;51.72;100348.88;10190846;29;20456;-73
2023/06/13 05:11:08;;;;;;;12.18;7.97;;;;;;;16.19;52.04;100360.59;10193877;29;20119;-73
2023/06/13 05:16:14;;;;;;;9.35;7.18;;;;;;;16.56;51.75;100363.00;10192477;29;20056;-74
2023/06/13 05:21:17;;;;;;;9.52;7.68;;;;;;;16.71;53.17;100359.66;10190156;29;20048;-73
2023/06/13 05:26:20;;;;;;;10.27;7.53;;;;;;;16.80;52.61;100361.38;10193067;29;20051;-73
2023/06/13 05:31:24;;;;;;;9.95;7.35;;;;;;;17.07;53.76;100364.81;10193518;29;20720;-74
2023/06/13 05:36:27;;;;;;;10.95;7.20;;;;;;;17.34;50.90;100364.53;10189711;29;20054;-73
2023/06/13 05:41:30;;;;;;;12.48;7.57;;;;;;;17.59;49.50;100361.81;10200569;29;20039;-73
2023/06/13 05:46:34;;;;;;;9.13;7.35;;;;;;;17.74;48.76;100367.41;10193852;29;20115;-73
2023/06/13 05:51:37;;;;;;;11.18;7.30;;;;;;;17.85;49.08;100370.63;10191169;29;20488;-73
2023/06/13 05:56:40;;;;;;;13.38;7.45;;;;;;;17.95;48.91;100372.31;10189027;29;20514;-74
2023/06/13 06:01:45;;;;;;;8.85;7.57;;;;;;;18.06;48.97;100367.38;10187857;29;20044;-73
2023/06/13 06:06:48;;;;;;;8.18;6.63;;;;;;;18.25;48.18;100368.00;10186555;29;20044;-73
2023/06/13 06:11:51;;;;;;;11.90;6.93;;;;;;;18.25;47.22;100368.00;10181469;29;20054;-74
2023/06/13 06:16:55;;;;;;;11.13;6.97;;;;;;;18.17;46.34;100370.75;10183640;29;20047;-73
2023/06/13 06:21:58;;;;;;;10.13;6.97;;;;;;;18.52;47.15;100366.72;10175830;29;20051;-74
2023/06/13 06:27:01;;;;;;;7.72;7.00;;;;;;;18.86;46.89;100369.13;10175124;29;20055;-73
2023/06/13 06:32:06;;;;;;;9.52;6.10;;;;;;;19.21;46.29;100359.53;10172747;29;20079;-74
2023/06/13 06:37:09;;;;;;;8.15;6.22;;;;;;;19.59;44.82;100365.03;10175801;29;20052;-74
2023/06/13 06:42:15;;;;;;;11.18;6.32;;;;;;;20.04;45.15;100363.22;10172208;29;20044;-74
2023/06/13 06:47:33;;;;;;;10.75;6.38;;;;;;;20.31;43.04;100361.75;10184501;29;20052;-75
2023/06/13 06:52:36;;;;;;;9.70;5.95;;;;;;;20.54;43.84;100368.97;10181303;29;20504;-75
2023/06/13 06:57:39;;;;;;;12.90;6.05;;;;;;;20.87;44.02;100361.22;10175751;29;20051;-75
2023/06/13 07:02:44;;;;;;;9.10;6.97;;;;;;;21.07;43.86;100363.34;10185313;29;20046;-75
2023/06/13 07:07:47;;;;;;;7.85;6.25;;;;;;;21.47;43.27;100355.53;10182305;29;20050;-75
2023/06/13 07:12:49;;;;;;;15.82;6.32;;;;;;;21.84;41.81;100349.78;10182539;29;20048;-74
2023/06/13 07:17:54;;;;;;;7.35;6.28;;;;;;;22.20;40.81;100350.63;10183056;29;20075;-75
2023/06/13 07:22:56;;;;;;;9.98;5.82;;;;;;;23.23;39.40;100342.41;10191616;29;20083;-75
2023/06/13 07:27:59;;;;;;;9.68;6.10;;;;;;;25.59;36.09;100351.19;10193862;29;20048;-76
2023/06/13 07:33:04;;;;;;;9.18;5.93;;;;;;;27.21;34.09;100346.41;10197163;29;20740;-75
2023/06/13 07:38:07;;;;;;;10.68;6.00;;;;;;;26.98;32.60;100352.69;10193322;29;20043;-74
2023/06/13 07:43:09;;;;;;;8.65;5.90;;;;;;;26.77;32.37;100359.50;10191342;29;20098;-75
2023/06/13 07:48:13;;;;;;;7.05;5.13;;;;;;;26.82;33.04;100346.75;10191626;29;20048;-74
2023/06/13 07:53:16;;;;;;;11.85;5.35;;;;;;;26.83;32.50;100353.13;10190767;29;20522;-75
2023/06/13 07:58:19;;;;;;;7.13;5.53;;;;;;;26.36;33.38;100350.91;10190331;29;20076;-75
2023/06/13 08:03:24;;;;;;;9.65;5.50;;;;;;;26.38;34.46;100353.41;10188486;29;20044;-74
2023/06/13 08:08:30;;;;;;;5.68;5.10;;;;;;;26.63;34.25;100348.69;10188460;29;20056;-74
2023/06/13 08:13:33;;;;;;;7.30;4.65;;;;;;;26.79;33.09;100341.66;10187309;29;20048;-74
2023/06/13 08:18:39;;;;;;;10.93;5.70;;;;;;;26.55;34.14;100349.00;10195519;29;20126;-74
2023/06/13 08:23:42;;;;;;;9.88;5.15;;;;;;;26.37;33.23;100346.25;10189630;29;20047;-74
2023/06/13 08:28:46;;;;;;;7.22;4.88;;;;;;;26.22;33.02;100339.19;10181281;29;20060;-73
2023/06/13 08:33:50;;;;;;;6.65;5.60;;;;;;;26.19;32.20;100342.41;10185007;29;20043;-73
2023/06/13 08:39:10;;;;;;;4.85;4.38;;;;;;;26.14;32.20;100339.47;10196079;29;20048;-74
2023/06/13 08:44:13;;;;;;;8.93;4.88;;;;;;;26.47;32.20;100339.13;10195175;29;20135;-74
2023/06/13 08:49:17;;;;;;;5.60;4.32;;;;;;;26.73;30.37;100329.66;10179321;29;20100;-73
2023/06/13 08:54:21;;;;;;;6.28;4.63;;;;;;;26.43;30.31;100331.53;10191022;29;20400;-75
2023/06/13 08:59:26;;;;;;;7.45;4.88;;;;;;;27.16;29.95;100314.88;10188662;29;20114;-75
2023/06/13 09:04:32;;;;;;;5.53;3.90;;;;;;;27.61;28.22;100316.28;10186526;29;20048;-75
2023/06/13 09:09:36;;;;;;;5.07;4.57;;;;;;;27.66;27.72;100299.84;10189744;29;20040;-75
2023/06/13 09:14:40;;;;;;;7.25;4.80;;;;;;;27.36;28.68;100306.28;10192691;29;20135;-75
2023/06/13 09:19:44;;;;;;;4.75;3.80;;;;;;;27.11;27.18;100302.88;10191806;29;20047;-75
2023/06/13 09:24:48;;;;;;;4.85;4.28;;;;;;;27.08;27.16;100304.19;10193463;29;20033;-76
2023/06/13 09:29:51;;;;;;;5.72;4.43;;;;;;;27.07;27.24;100307.16;10195449;29;20052;-76
2023/06/13 09:34:56;;;;;;;6.25;4.90;;;;;;;27.41;26.84;100307.53;10193225;29;20480;-76
2023/06/13 09:40:04;;;;;;;6.55;4.07;;;;;;;27.92;27.38;100293.03;10196253;29;20055;-76
2023/06/13 09:45:29;;;;;;;5.90;4.15;;;;;;;28.07;27.62;100298.06;10189263;29;20118;-76
2023/06/13 09:50:34;;;;;;;6.35;4.47;;;;;;;28.72;26.98;100291.41;10195332;29;20051;-76
2023/06/13 09:55:37;;;;;;;5.25;4.45;;;;;;;29.69;25.86;100290.34;10194526;29;20051;-76
2023/06/13 10:00:40;;;;;;;11.13;4.95;;;;;;;28.78;26.54;100293.19;10192858;29;20070;-75
2023/06/13 10:05:45;;;;;;;4.90;4.50;;;;;;;28.99;25.84;100282.50;10193105;29;20050;-75
2023/06/13 10:10:48;;;;;;;6.28;4.50;;;;;;;28.83;25.55;100278.63;10195854;29;20043;-76
2023/06/13 10:15:54;;;;;;;6.53;4.43;;;;;;;29.41;26.59;100271.91;10193799;29;20036;-75
2023/06/13 10:21:00;;;;;;;7.40;4.43;;;;;;;29.77;26.14;100270.56;10198884;29;20426;-75
2023/06/13 10:26:09;;;;;;;7.28;4.70;;;;;;;30.13;24.73;100273.84;10190318;29;20047;-75
2023/06/13 10:31:19;;;;;;;5.50;4.50;;;;;;;30.40;24.87;100270.28;10193271;29;20046;-75
2023/06/13 10:36:43;;;;;;;6.20;4.75;;;;;;;30.61;25.41;100258.34;10189844;29;20042;-76
2023/06/13 10:42:00;;;;;;;6.85;4.50;;;;;;;30.58;25.58;100260.78;10189840;29;20570;-76
2023/06/13 10:47:03;;;;;;;6.18;5.05;;;;;;;30.54;23.62;100252.16;10185708;29;20040;-75
2023/06/13 10:52:12;;;;;;;6.07;4.70;;;;;;;30.40;23.55;100256.44;10185541;29;20053;-76
2023/06/13 10:57:14;;;;;;;8.23;4.35;;;;;;;30.44;23.10;100254.81;10190391;29;20055;-76
2023/06/13 11:02:19;;;;;;;8.88;4.55;;;;;;;30.55;24.11;100242.75;10195684;29;20046;-78
2023/06/13 11:07:29;;;;;;;4.90;4.50;;;;;;;31.37;23.76;100237.97;10192705;29;20054;-76
2023/06/13 11:12:32;;;;;;;4.88;4.47;;;;;;;31.39;24.26;100234.97;10184875;29;20091;-76
2023/06/13 11:17:35;;;;;;;6.78;4.70;;;;;;;30.74;25.29;100228.56;10188295;29;20040;-76
2023/06/13 11:22:40;;;;;;;5.85;4.60;;;;;;;30.61;25.79;100225.09;10184879;29;20032;-75
2023/06/13 11:27:43;;;;;;;7.07;4.93;;;;;;;32.07;24.66;100224.00;10180185;29;20038;-76
2023/06/13 11:32:48;;;;;;;6.53;5.53;;;;;;;31.55;24.61;100226.47;10187416;29;20044;-75
2023/06/13 11:38:00;;;;;;;6.55;4.80;;;;;;;31.52;23.92;100218.69;10191725;29;20043;-78
2023/06/13 11:43:03;;;;;;;5.05;4.57;;;;;;;31.27;24.69;100218.50;10186824;29;20419;-76
2023/06/13 11:48:11;;;;;;;9.20;4.88;;;;;;;32.03;25.12;100215.34;10189721;29;20484;-78
2023/06/13 11:53:17;;;;;;;10.05;5.28;;;;;;;31.78;24.65;100210.50;10191353;29;20044;-76
2023/06/13 11:58:30;;;;;;;5.63;4.50;;;;;;;32.02;25.31;100214.50;10194313;29;20044;-76
2023/06/13 12:03:37;;;;;;;5.22;4.30;;;;;;;31.95;24.92;100210.31;10201332;29;20046;-76
2023/06/13 12:08:45;;;;;;;5.95;4.32;;;;;;;32.76;24.80;100201.41;10194050;29;20095;-76
2023/06/13 12:13:59;;;;;;;6.95;4.93;;;;;;;32.65;24.54;100197.78;10191205;29;20043;-76
2023/06/13 12:19:02;;;;;;;8.90;5.53;;;;;;;31.05;24.99;100191.69;10194450;29;20048;-76
2023/06/13 12:24:08;;;;;;;5.93;4.93;;;;;;;30.99;25.87;100184.41;10192561;29;20147;-76
2023/06/13 12:29:13;;;;;;;5.80;4.47;;;;;;;31.44;25.13;100193.38;10192434;29;20435;-75
2023/06/13 12:34:26;;;;;;;6.40;4.60;;;;;;;31.56;24.97;100186.50;10192690;29;20130;-76
2023/06/13 12:39:31;;;;;;;11.48;5.25;;;;;;;31.20;24.86;100190.97;10192436;29;21274;-76
2023/06/13 12:44:35;;;;;;;5.45;4.78;;;;;;;31.85;23.50;100176.97;10192143;29;20480;-76
2023/06/13 12:49:39;;;;;;;10.63;5.00;;;;;;;32.78;22.76;100173.34;10191118;29;20040;-77
2023/06/13 12:54:43;;;;;;;5.03;4.53;;;;;;;32.83;23.49;100176.94;10191587;29;20042;-76
2023/06/13 12:59:52;;;;;;;6.18;4.50;;;;;;;33.14;22.99;100165.84;10192524;29;20455;-76
2023/06/13 13:04:59;;;;;;;6.50;5.07;;;;;;;32.86;22.70;100158.88;10191077;29;20046;-77
2023/06/13 13:10:06;;;;;;;5.10;4.28;;;;;;;33.18;22.54;100153.00;10188780;29;20135;-76
2023/06/13 13:15:09;;;;;;;5.13;4.45;;;;;;;32.51;22.25;100162.44;10187488;29;20048;-76
2023/06/13 13:20:12;;;;;;;7.32;4.63;;;;;;;31.91;22.92;100154.47;10186644;29;20047;-76
2023/06/13 13:25:16;;;;;;;7.63;4.50;;;;;;;32.01;22.47;100153.69;10183641;29;20048;-76
2023/06/13 13:30:20;;;;;;;8.35;4.60;;;;;;;31.95;21.20;100146.44;10186748;29;20044;-77
2023/06/13 13:35:23;;;;;;;5.82;4.70;;;;;;;32.70;22.13;100151.66;10184529;29;20495;-76
2023/06/13 13:40:27;;;;;;;4.88;4.28;;;;;;;33.00;21.86;100134.13;10191233;29;20119;-77
2023/06/13 13:45:30;;;;;;;5.05;4.43;;;;;;;32.64;21.79;100148.00;10187656;29;20040;-76
2023/06/13 13:50:33;;;;;;;6.63;4.57;;;;;;;31.88;22.12;100146.69;10181066;29;20506;-76
2023/06/13 13:55:37;;;;;;;5.07;4.50;;;;;;;31.93;22.77;100143.13;10181446;29;20396;-77
2023/06/13 14:00:40;;;;;;;5.05;4.07;;;;;;;31.97;21.87;100144.22;10185741;29;20123;-77
2023/06/13 14:05:43;;;;;;;5.40;4.85;;;;;;;32.64;22.36;100134.94;10187267;29;20051;-77
2023/06/13 14:10:47;;;;;;;5.10;4.55;;;;;;;33.51;22.26;100129.25;10185410;29;20495;-77
2023/06/13 14:15:50;;;;;;;5.88;5.28;;;;;;;32.67;22.31;100123.28;10192611;29;20041;-76
2023/06/13 14:20:53;;;;;;;4.50;4.20;;;;;;;32.65;22.53;100128.28;10189846;29;20071;-77
2023/06/13 14:25:57;;;;;;;7.25;4.65;;;;;;;32.86;22.43;100106.88;10189955;29;20040;-76
2023/06/13 14:31:00;;;;;;;10.43;5.22;;;;;;;33.35;22.42;100115.69;10190052;29;20044;-76
2023/06/13 14:36:03;;;;;;;5.80;5.20;;;;;;;33.06;22.50;100121.84;10196322;29;20511;-75
2023/06/13 14:41:08;;;;;;;5.38;4.57;;;;;;;33.01;22.34;100113.50;10216497;28;20067;-76
2023/06/13 14:46:11;;;;;;;9.50;5.22;;;;;;;31.47;23.64;100124.28;10203880;29;20071;-77
2023/06/13 14:51:14;;;;;;;5.18;4.68;;;;;;;31.92;22.69;100113.66;10210617;29;20055;-76
2023/06/13 14:56:18;;;;;;;6.32;5.03;;;;;;;32.34;22.13;100101.56;10207726;29;20048;-76
2023/06/13 15:01:21;;;;;;;6.30;4.55;;;;;;;32.22;22.04;100101.81;10207832;29;20047;-76
2023/06/13 15:06:24;;;;;;;9.02;4.82;;;;;;;31.74;22.71;100096.41;10204087;29;20106;-77
2023/06/13 15:11:28;;;;;;;11.38;5.25;;;;;;;32.16;22.81;100091.78;10200389;29;20063;-76
2023/06/13 15:16:32;;;;;;;5.72;5.00;;;;;;;32.99;21.82;100090.69;10203212;29;20051;-76
2023/06/13 15:21:35;;;;;;;12.88;5.40;;;;;;;32.80;21.64;100096.00;10204277;29;20048;-76
2023/06/13 15:26:40;;;;;;;7.13;4.68;;;;;;;32.14;22.05;100088.44;10202946;29;20052;-76
2023/06/13 15:31:43;;;;;;;8.88;4.28;;;;;;;32.76;22.13;100089.34;10198373;29;20479;-76
2023/06/13 15:36:46;;;;;;;9.88;5.55;;;;;;;32.98;21.65;100089.88;10195261;29;20033;-76
2023/06/13 15:41:50;;;;;;;6.10;5.50;;;;;;;33.42;21.95;100094.78;10189384;29;20080;-76
2023/06/13 15:46:53;;;;;;;4.93;4.43;;;;;;;33.09;21.74;100091.50;10191517;29;20048;-76
2023/06/13 15:51:56;;;;;;;6.50;4.68;;;;;;;33.04;21.67;100085.13;10190703;29;20040;-76
2023/06/13 15:57:00;;;;;;;5.38;4.75;;;;;;;32.89;21.33;100088.78;10198464;29;20484;-77
2023/06/13 16:02:03;;;;;;;8.52;5.50;;;;;;;32.25;22.05;100076.25;10181172;29;20043;-76
2023/06/13 16:07:06;;;;;;;6.82;4.70;;;;;;;31.95;22.17;100060.34;10186236;29;20043;-77
2023/06/13 16:12:10;;;;;;;5.45;4.70;;;;;;;31.79;22.21;100079.75;10179325;29;20055;-77
2023/06/13 16:17:13;;;;;;;6.32;4.78;;;;;;;31.57;22.11;100079.94;10185474;29;20047;-77
2023/06/13 16:22:16;;;;;;;6.25;5.38;;;;;;;31.76;22.47;100068.34;10180538;29;20043;-77
2023/06/13 16:27:20;;;;;;;8.02;5.55;;;;;;;32.85;22.01;100069.03;10183923;29;20035;-77
2023/06/13 16:32:23;;;;;;;7.13;5.18;;;;;;;34.90;20.22;100055.94;10180344;29;20048;-77
2023/06/13 16:37:27;;;;;;;7.13;5.20;;;;;;;38.05;17.90;100064.97;10185485;29;20050;-77
2023/06/13 16:42:31;;;;;;;5.90;5.30;;;;;;;35.36;19.16;100063.81;10186560;29;20117;-77
2023/06/13 16:47:34;;;;;;;7.50;5.70;;;;;;;31.28;22.79;100065.63;10192796;29;20040;-80
2023/06/13 16:52:37;;;;;;;8.77;6.00;;;;;;;31.50;22.36;100073.78;10194139;29;20043;-80
2023/06/13 16:57:41;;;;;;;7.03;5.75;;;;;;;29.22;24.58;100074.97;10196829;29;20451;-79
2023/06/13 17:02:44;;;;;;;9.70;5.18;;;;;;;30.19;23.67;100084.47;10198971;29;20048;-80
2023/06/13 17:07:47;;;;;;;5.88;5.00;;;;;;;36.44;19.68;100058.38;10203575;29;20043;-80
2023/06/13 17:12:51;;;;;;;6.25;5.05;;;;;;;38.49;17.34;100056.94;10200789;29;20055;-80
2023/06/13 17:17:54;;;;;;;6.88;5.30;;;;;;;32.99;21.28;100071.22;10217918;29;20052;-80
2023/06/13 17:22:57;;;;;;;5.80;4.78;;;;;;;29.68;24.39;100077.53;10203521;29;20099;-80
2023/06/13 17:28:02;;;;;;;7.18;5.55;;;;;;;30.59;24.26;100071.25;10208498;29;20036;-80
2023/06/13 17:33:04;;;;;;;12.82;5.88;;;;;;;32.27;22.73;100068.47;10223182;29;20083;-80
2023/06/13 17:38:08;;;;;;;7.03;5.28;;;;;;;36.44;20.03;100063.16;10205106;29;20040;-80
2023/06/13 17:43:12;;;;;;;8.10;5.63;;;;;;;37.02;19.21;100073.88;10206823;29;20056;-80
2023/06/13 17:48:15;;;;;;;5.57;4.75;;;;;;;36.22;19.49;100069.34;10208899;29;20036;-80
2023/06/13 17:53:18;;;;;;;10.35;5.90;;;;;;;32.14;22.64;100074.53;10204566;29;20044;-80
2023/06/13 17:58:22;;;;;;;7.35;5.82;;;;;;;30.08;24.31;100081.81;10203648;29;20503;-80
2023/06/13 18:03:25;;;;;;;8.35;5.32;;;;;;;28.93;25.37;100082.53;10200349;29;20121;-80
2023/06/13 18:08:27;;;;;;;7.30;5.03;;;;;;;27.85;26.96;100082.56;10202666;29;20047;-79
2023/06/13 18:13:32;;;;;;;6.28;5.35;;;;;;;27.12;27.87;100082.09;10202001;29;20070;-79
2023/06/13 18:18:35;;;;;;;7.20;5.68;;;;;;;26.70;28.33;100086.88;10185961;29;20127;-79
2023/06/13 18:23:38;;;;;;;7.75;6.00;;;;;;;26.40;29.01;100084.19;10179794;29;20040;-80
2023/06/13 18:28:42;;;;;;;6.93;6.00;;;;;;;26.20;29.26;100077.06;10183661;29;20050;-77
2023/06/13 18:33:45;;;;;;;7.43;5.70;;;;;;;26.19;29.77;100080.91;10174619;29;20044;-77
2023/06/13 18:38:48;;;;;;;7.95;5.13;;;;;;;26.07;30.07;100086.34;10172020;29;20127;-77
2023/06/13 18:43:53;;;;;;;8.45;5.43;;;;;;;25.90;29.75;100081.75;10175472;29;20044;-77
2023/06/13 18:48:56;;;;;;;8.93;5.05;;;;;;;25.53;29.36;100084.50;10176606;29;20051;-77
2023/06/13 18:53:59;;;;;;;5.88;4.57;;;;;;;25.43;29.17;100089.72;10192356;29;20047;-77
2023/06/13 18:59:03;;;;;;;8.02;5.15;;;;;;;25.24;29.05;100092.47;10190118;29;20421;-75
2023/06/13 19:04:06;;;;;;;5.00;4.50;;;;;;;25.06;28.97;100104.25;10191040;29;20051;-76
2023/06/13 19:09:11;;;;;;;6.47;5.32;;;;;;;24.91;29.41;100098.28;10183574;29;20052;-76
2023/06/13 19:14:16;;;;;;;5.85;4.90;;;;;;;24.74;29.63;100109.00;10189738;29;20054;-76
2023/06/13 19:19:19;;;;;;;6.88;4.75;;;;;;;24.47;30.09;100109.22;10198236;29;20082;-76
2023/06/13 19:24:22;;;;;;;5.97;4.82;;;;;;;24.27;30.13;100109.31;10204257;29;20515;-76
2023/06/13 19:29:26;;;;;;;8.23;5.57;;;;;;;24.07;30.63;100111.34;10204572;29;20070;-76
2023/06/13 19:34:29;;;;;;;6.25;5.00;;;;;;;23.87;30.83;100119.69;10216500;29;20044;-75
2023/06/13 19:39:32;;;;;;;5.50;4.57;;;;;;;23.76;31.11;100121.19;10208864;29;20047;-76
2023/06/13 19:44:36;;;;;;;7.13;4.40;;;;;;;23.58;31.57;100129.25;10204964;29;20051;-76
2023/06/13 19:49:39;;;;;;;5.95;4.63;;;;;;;23.40;31.87;100136.25;10204984;29;20091;-76
2023/06/13 19:54:42;;;;;;;6.90;4.97;;;;;;;23.23;32.09;100145.13;10204902;29;20040;-75
2023/06/13 19:59:48;;;;;;;8.60;4.90;;;;;;;23.07;32.36;100147.25;10204641;29;20095;-76
2023/06/13 20:04:50;;;;;;;6.93;5.07;;;;;;;22.97;32.68;100163.28;10202097;29;20095;-75
2023/06/13 20:09:54;;;;;;;7.57;4.60;;;;;;;22.78;33.39;100165.78;10201674;29;20115;-75
2023/06/13 20:14:58;;;;;;;10.52;4.95;;;;;;;22.56;33.10;100169.78;10202963;29;20055;-76
2023/06/13 20:20:07;;;;;;;8.50;4.72;;;;;;;22.50;33.76;100182.41;10201570;29;20044;-76
2023/06/13 20:25:11;;;;;;;8.73;4.13;;;;;;;22.30;33.62;100187.81;10199663;29;20044;-75
2023/06/13 20:30:15;;;;;;;4.60;4.18;;;;;;;22.27;33.76;100187.34;10199360;29;20755;-75
2023/06/13 20:35:18;;;;;;;6.60;4.40;;;;;;;22.10;33.42;100201.44;10199728;29;20043;-79
2023/06/13 20:40:21;;;;;;;3.65;3.33;;;;;;;22.10;33.23;100206.03;10195821;29;20071;-76
2023/06/13 20:45:27;;;;;;;4.60;3.55;;;;;;;22.01;33.19;100216.31;10191390;29;20530;-76
2023/06/13 20:50:30;;;;;;;8.27;3.60;;;;;;;21.91;33.03;100217.72;10185650;29;20051;-75
2023/06/13 20:55:33;;;;;;;7.55;3.25;;;;;;;21.79;33.06;100225.66;10180923;29;20492;-74
2023/06/13 21:00:39;;;;;;;4.82;3.60;;;;;;;21.65;33.60;100232.91;10187516;29;20044;-74
2023/06/13 21:05:42;;;;;;;6.85;3.03;;;;;;;21.44;33.25;100248.31;10185629;29;20048;-75
2023/06/13 21:10:45;;;;;;;7.72;3.13;;;;;;;21.35;33.26;100241.31;10186540;29;20048;-74
2023/06/13 21:15:49;;;;;;;4.38;3.00;;;;;;;21.28;33.05;100242.31;10193178;29;20043;-74
2023/06/13 21:20:52;;;;;;;5.78;2.88;;;;;;;21.19;33.28;100258.84;10191227;29;20049;-74
2023/06/13 21:25:55;;;;;;;6.82;3.05;;;;;;;21.08;33.68;100256.66;10192259;29;20039;-75
2023/06/13 21:31:00;;;;;;;7.35;3.58;;;;;;;21.01;33.54;100259.28;10195315;29;20067;-74
2023/06/13 21:36:03;;;;;;;6.93;2.60;;;;;;;20.95;33.98;100261.94;10194666;29;20168;-74
2023/06/13 21:41:06;;;;;;;3.60;2.78;;;;;;;20.86;34.08;100274.88;10197887;29;20047;-75
2023/06/13 21:46:10;;;;;;;5.22;2.97;;;;;;;20.70;34.34;100270.50;10198052;29;20056;-76
2023/06/13 21:51:14;;;;;;;8.63;2.55;;;;;;;20.63;34.38;100269.63;10200260;29;20164;-74
2023/06/13 21:56:17;;;;;;;5.68;2.92;;;;;;;20.53;34.58;100290.91;10199473;29;20044;-76
2023/06/13 22:01:21;;;;;;;3.40;2.22;;;;;;;20.43;34.68;100287.63;10193961;29;20052;-75
2023/06/13 22:06:25;;;;;;;4.15;3.10;;;;;;;20.28;35.13;100293.09;10191370;29;20051;-75
2023/06/13 22:11:29;;;;;;;6.28;2.70;;;;;;;20.23;35.40;100292.81;10191644;29;20522;-75
2023/06/13 22:16:35;;;;;;;4.68;2.40;;;;;;;20.20;35.57;100298.66;10195930;29;20077;-75
2023/06/13 22:21:40;;;;;;;7.93;2.20;;;;;;;20.16;35.68;100300.03;10189613;29;20134;-75
2023/06/13 22:26:45;;;;;;;7.97;2.78;;;;;;;19.99;36.08;100308.41;10191335;29;20436;-75
2023/06/13 22:31:50;;;;;;;4.75;3.13;;;;;;;19.94;36.50;100308.16;10188245;29;20511;-74
2023/06/13 22:36:53;;;;;;;4.35;2.13;;;;;;;19.86;36.63;100314.53;10190467;29;20052;-75
2023/06/13 22:41:56;;;;;;;6.63;2.35;;;;;;;19.82;36.70;100315.09;10189408;29;20040;-74
2023/06/13 22:47:00;;;;;;;4.40;2.78;;;;;;;19.68;36.92;100331.22;10186695;29;20460;-75
2023/06/13 22:52:03;;;;;;;8.95;2.50;;;;;;;19.54;37.37;100332.03;10189164;29;20067;-75
2023/06/13 22:57:07;;;;;;;4.50;2.33;;;;;;;19.45;37.60;100333.13;10194909;29;20655;-75
2023/06/13 23:02:11;;;;;;;4.22;2.20;;;;;;;19.43;37.86;100338.75;10191234;29;20040;-75
2023/06/13 23:07:14;;;;;;;3.08;2.20;;;;;;;19.46;38.02;100335.66;10193579;29;20048;-75
2023/06/13 23:12:18;;;;;;;4.95;2.35;;;;;;;19.40;38.09;100336.41;10187758;29;20040;-73
2023/06/13 23:17:24;;;;;;;3.17;2.33;;;;;;;19.21;39.60;100342.34;10192917;29;20461;-75